Station Historical Data
Daily Summary for February 15, 2018 Units:  English    Metric   Both
« Previous Day
Next Day »
Daily Weekly Monthly Yearly Custom
  High: Low: Average:
Temperature: 48.3 °F 40.0 °F 44.2 °F
Dew Point: 45.3 °F 36.2 °F 41.9 °F
Humidity: 94% 86% 92%
Wind Speed: 19.0mph 0.0mph 5.2mph
Wind Gust: 34.0mph - -
Wind- - SW
Pressure: 29.92 in 29.64 in -
Precipitation: 0.00 in    
Historical Graphs
 
 
Tabular Data for February 15, 2018
Time Temperature Dew Point Pressure Wind Wind Speed Wind Gust Humidity Rainfall Rate (Hourly)
00:04 40.0 °F 36.2 °F 29.92 in SW 1.0 mph 4.0 mph 86% 0.00 in
00:09 40.0 °F 36.2 °F 29.92 in SW 1.0 mph 5.0 mph 86% 0.00 in
00:14 40.4 °F 36.5 °F 29.91 in SW 2.0 mph 6.0 mph 86% 0.00 in
00:19 41.0 °F 37.1 °F 29.92 in SW 3.0 mph 8.0 mph 86% 0.00 in
00:24 41.2 °F 37.3 °F 29.91 in WSW 2.0 mph 7.0 mph 86% 0.00 in
00:29 41.2 °F 37.3 °F 29.91 in SW 5.0 mph 7.0 mph 86% 0.00 in
00:34 41.4 °F 37.5 °F 29.91 in SW 7.0 mph 7.0 mph 86% 0.00 in
00:39 41.4 °F 37.5 °F 29.90 in SW 4.0 mph 7.0 mph 86% 0.00 in
00:44 41.3 °F 37.7 °F 29.90 in SW 1.0 mph 6.0 mph 87% 0.00 in
00:49 41.2 °F 37.6 °F 29.90 in SW 2.0 mph 6.0 mph 87% 0.00 in
00:54 41.2 °F 37.6 °F 29.90 in SW 2.0 mph 6.0 mph 87% 0.00 in
00:59 41.3 °F 37.7 °F 29.89 in SW 2.0 mph 6.0 mph 87% 0.00 in
01:04 41.3 °F 37.7 °F 29.89 in Calm   3.0 mph 87% 0.00 in
01:09 41.3 °F 37.7 °F 29.89 in SW 3.0 mph 4.0 mph 87% 0.00 in
01:14 41.3 °F 37.7 °F 29.89 in SW 3.0 mph 4.0 mph 87% 0.00 in
01:19 41.4 °F 38.1 °F 29.89 in SW 2.0 mph 4.0 mph 88% 0.00 in
01:24 41.5 °F 38.2 °F 29.88 in SW 2.0 mph 6.0 mph 88% 0.00 in
01:29 41.7 °F 38.4 °F 29.88 in SW 2.0 mph 6.0 mph 88% 0.00 in
01:34 41.6 °F 38.3 °F 29.88 in SW 1.0 mph 5.0 mph 88% 0.00 in
01:39 41.8 °F 38.5 °F 29.87 in SW 3.0 mph 5.0 mph 88% 0.00 in
01:44 41.8 °F 38.5 °F 29.88 in SW 1.0 mph 5.0 mph 88% 0.00 in
01:49 42.0 °F 39.0 °F 29.88 in SW 2.0 mph 5.0 mph 89% 0.00 in
01:54 42.1 °F 39.1 °F 29.87 in SW 3.0 mph 7.0 mph 89% 0.00 in
01:59 42.2 °F 39.2 °F 29.86 in SW 3.0 mph 7.0 mph 89% 0.00 in
02:04 42.2 °F 39.2 °F 29.87 in SW 3.0 mph 6.0 mph 89% 0.00 in
02:09 42.1 °F 39.1 °F 29.87 in SW 2.0 mph 6.0 mph 89% 0.00 in
02:14 42.3 °F 39.3 °F 29.87 in SW 3.0 mph 8.0 mph 89% 0.00 in
02:19 42.5 °F 39.5 °F 29.86 in SSW 4.0 mph 7.0 mph 89% 0.00 in
02:24 42.5 °F 39.5 °F 29.85 in SSW 4.0 mph 7.0 mph 89% 0.00 in
02:29 42.7 °F 39.7 °F 29.85 in SSW 2.0 mph 5.0 mph 89% 0.00 in
02:34 42.6 °F 39.6 °F 29.85 in SSW 2.0 mph 6.0 mph 89% 0.00 in
02:39 42.7 °F 39.7 °F 29.85 in SSW 2.0 mph 6.0 mph 89% 0.00 in
02:44 42.7 °F 39.7 °F 29.84 in SSW 3.0 mph 6.0 mph 89% 0.00 in
02:49 42.7 °F 39.7 °F 29.84 in SSW 2.0 mph 7.0 mph 89% 0.00 in
02:54 42.8 °F 39.8 °F 29.84 in SW 3.0 mph 6.0 mph 89% 0.00 in
02:59 42.8 °F 39.8 °F 29.85 in SW 1.0 mph 5.0 mph 89% 0.00 in
03:04 42.8 °F 39.8 °F 29.84 in SSW 2.0 mph 6.0 mph 89% 0.00 in
03:09 42.9 °F 39.9 °F 29.84 in SW 3.0 mph 6.0 mph 89% 0.00 in
03:14 43.0 °F 40.0 °F 29.83 in SW 3.0 mph 9.0 mph 89% 0.00 in
03:19 43.0 °F 40.0 °F 29.83 in SSW 3.0 mph 6.0 mph 89% 0.00 in
03:24 43.1 °F 40.4 °F 29.83 in SSW 3.0 mph 6.0 mph 90% 0.00 in
03:29 43.2 °F 40.5 °F 29.83 in SW 2.0 mph 6.0 mph 90% 0.00 in
03:34 43.3 °F 40.6 °F 29.83 in SSW 5.0 mph 6.0 mph 90% 0.00 in
03:44 43.4 °F 40.7 °F 29.82 in SW 3.0 mph 8.0 mph 90% 0.00 in
03:49 43.6 °F 40.9 °F 29.82 in SSW 3.0 mph 8.0 mph 90% 0.00 in
03:54 43.6 °F 40.9 °F 29.82 in SSW 3.0 mph 8.0 mph 90% 0.00 in
03:59 43.7 °F 41.0 °F 29.81 in SSW 3.0 mph 7.0 mph 90% 0.00 in
04:09 43.7 °F 41.0 °F 29.81 in SSW 3.0 mph 7.0 mph 90% 0.00 in
04:19 43.7 °F 41.0 °F 29.81 in SW 4.0 mph 7.0 mph 90% 0.00 in
04:24 43.8 °F 41.3 °F 29.81 in SW 4.0 mph 7.0 mph 91% 0.00 in
04:29 44.0 °F 41.5 °F 29.80 in SSW 5.0 mph 7.0 mph 91% 0.00 in
04:34 44.1 °F 41.6 °F 29.79 in SW 4.0 mph 10.0 mph 91% 0.00 in
04:39 44.2 °F 41.7 °F 29.80 in SW 4.0 mph 10.0 mph 91% 0.00 in
04:44 44.4 °F 41.9 °F 29.80 in SW 5.0 mph 11.0 mph 91% 0.00 in
04:49 44.6 °F 42.1 °F 29.80 in SW 6.0 mph 14.0 mph 91% 0.00 in
04:54 45.2 °F 42.7 °F 29.80 in SW 8.0 mph 23.0 mph 91% 0.00 in
04:59 45.2 °F 42.7 °F 29.80 in SW 10.0 mph 23.0 mph 91% 0.00 in
05:04 45.1 °F 42.6 °F 29.79 in SW 9.0 mph 22.0 mph 91% 0.00 in
05:09 45.0 °F 42.5 °F 29.80 in SW 9.0 mph 16.0 mph 91% 0.00 in
05:14 45.1 °F 42.6 °F 29.79 in SW 9.0 mph 22.0 mph 91% 0.00 in
05:19 45.2 °F 42.7 °F 29.80 in NW 8.0 mph 19.0 mph 91% 0.00 in
05:24 45.3 °F 42.8 °F 29.80 in SW 16.0 mph 24.0 mph 91% 0.00 in
05:29 45.4 °F 42.9 °F 29.80 in South 14.0 mph 19.0 mph 91% 0.00 in
05:34 45.3 °F 42.8 °F 29.79 in WSW 10.0 mph 17.0 mph 91% 0.00 in
05:39 45.1 °F 42.6 °F 29.79 in WSW 9.0 mph 24.0 mph 91% 0.00 in
05:44 45.0 °F 42.5 °F 29.79 in SSW 4.0 mph 25.0 mph 91% 0.00 in
05:49 44.8 °F 42.3 °F 29.79 in SW 12.0 mph 18.0 mph 91% 0.00 in
05:54 44.6 °F 42.1 °F 29.79 in SSW 7.0 mph 17.0 mph 91% 0.00 in
05:59 44.3 °F 41.8 °F 29.79 in SW 10.0 mph 20.0 mph 91% 0.00 in
06:04 44.3 °F 41.8 °F 29.79 in SW 10.0 mph 20.0 mph 91% 0.00 in
06:09 44.1 °F 41.6 °F 29.79 in SW 10.0 mph 20.0 mph 91% 0.00 in
06:14 44.2 °F 41.7 °F 29.79 in SW 11.0 mph 19.0 mph 91% 0.00 in
06:19 44.0 °F 41.5 °F 29.79 in WSW 11.0 mph 19.0 mph 91% 0.00 in
06:24 43.9 °F 41.4 °F 29.79 in WSW 10.0 mph 19.0 mph 91% 0.00 in
06:29 43.7 °F 41.2 °F 29.79 in SW 7.0 mph 19.0 mph 91% 0.00 in
06:34 43.6 °F 41.1 °F 29.79 in WSW 10.0 mph 19.0 mph 91% 0.00 in
06:39 43.4 °F 40.7 °F 29.78 in WSW 8.0 mph 15.0 mph 90% 0.00 in
06:44 43.1 °F 40.4 °F 29.78 in WSW 5.0 mph 17.0 mph 90% 0.00 in
06:49 42.8 °F 40.1 °F 29.78 in WSW 7.0 mph 16.0 mph 90% 0.00 in
06:54 42.4 °F 39.7 °F 29.78 in West 8.0 mph 15.0 mph 90% 0.00 in
06:59 42.4 °F 40.0 °F 29.78 in WSW 9.0 mph 16.0 mph 91% 0.00 in
07:04 42.4 °F 40.0 °F 29.78 in WNW 8.0 mph 16.0 mph 91% 0.00 in
07:09 42.4 °F 40.0 °F 29.78 in WSW 8.0 mph 17.0 mph 91% 0.00 in
07:14 42.2 °F 39.8 °F 29.78 in WSW 9.0 mph 17.0 mph 91% 0.00 in
07:19 41.9 °F 39.5 °F 29.78 in WSW 8.0 mph 15.0 mph 91% 0.00 in
07:24 41.8 °F 39.4 °F 29.78 in WSW 7.0 mph 13.0 mph 91% 0.00 in
07:29 41.8 °F 39.4 °F 29.78 in WSW 6.0 mph 13.0 mph 91% 0.00 in
07:34 42.0 °F 39.6 °F 29.78 in SW 12.0 mph 15.0 mph 91% 0.00 in
07:39 42.4 °F 40.2 °F 29.78 in WSW 4.0 mph 13.0 mph 92% 0.00 in
07:44 42.5 °F 40.1 °F 29.78 in SW 7.0 mph 13.0 mph 91% 0.00 in
07:49 42.4 °F 40.0 °F 29.78 in SW 7.0 mph 12.0 mph 91% 0.00 in
07:54 42.1 °F 39.9 °F 29.78 in SW 5.0 mph 13.0 mph 92% 0.00 in
07:59 42.2 °F 40.0 °F 29.78 in WSW 9.0 mph 12.0 mph 92% 0.00 in
08:04 42.2 °F 40.0 °F 29.78 in SW 4.0 mph 11.0 mph 92% 0.00 in
08:09 42.6 °F 40.4 °F 29.78 in WSW 4.0 mph 18.0 mph 92% 0.00 in
08:14 42.9 °F 40.7 °F 29.78 in SW 5.0 mph 11.0 mph 92% 0.00 in
08:19 43.4 °F 41.2 °F 29.77 in SW 6.0 mph 12.0 mph 92% 0.00 in
08:24 43.9 °F 42.0 °F 29.77 in SW 6.0 mph 12.0 mph 93% 0.00 in
08:29 44.6 °F 42.7 °F 29.77 in SW 6.0 mph 11.0 mph 93% 0.00 in
08:34 45.1 °F 43.2 °F 29.77 in SW 6.0 mph 11.0 mph 93% 0.01 in
08:39 45.4 °F 43.5 °F 29.77 in WSW 6.0 mph 10.0 mph 93% 0.01 in
08:44 45.9 °F 44.0 °F 29.77 in SSE 7.0 mph 16.0 mph 93% 0.01 in
08:49 46.4 °F 44.5 °F 29.77 in SW 10.0 mph 21.0 mph 93% 0.01 in
08:54 46.7 °F 44.8 °F 29.76 in SW 10.0 mph 24.0 mph 93% 0.01 in
08:59 46.7 °F 44.8 °F 29.77 in SW 11.0 mph 24.0 mph 93% 0.01 in
09:04 46.9 °F 45.0 °F 29.77 in SSW 8.0 mph 24.0 mph 93% 0.01 in
09:09 47.0 °F 45.1 °F 29.78 in WSW 19.0 mph 19.0 mph 93% 0.01 in
09:14 46.9 °F 45.0 °F 29.78 in West 12.0 mph 34.0 mph 93% 0.01 in
09:19 46.7 °F 44.8 °F 29.78 in WSW 10.0 mph 19.0 mph 93% 0.01 in
09:24 46.5 °F 44.6 °F 29.78 in SW 10.0 mph 21.0 mph 93% 0.01 in
09:29 46.4 °F 44.5 °F 29.78 in WSW 12.0 mph 28.0 mph 93% 0.01 in
09:34 46.2 °F 44.3 °F 29.78 in WSW 12.0 mph 28.0 mph 93% 0.00 in
09:39 45.9 °F 44.0 °F 29.78 in WSW 12.0 mph 23.0 mph 93% 0.00 in
09:44 45.7 °F 43.8 °F 29.78 in WSW 11.0 mph 23.0 mph 93% 0.00 in
09:49 45.2 °F 43.0 °F 29.78 in WSW 12.0 mph 22.0 mph 92% 0.00 in
09:54 45.1 °F 43.2 °F 29.78 in WSW 15.0 mph 20.0 mph 93% 0.00 in
09:59 44.9 °F 43.0 °F 29.79 in SW 19.0 mph 21.0 mph 93% 0.00 in
10:04 44.8 °F 42.9 °F 29.79 in WSW 12.0 mph 21.0 mph 93% 0.00 in
10:09 44.6 °F 42.7 °F 29.79 in South 9.0 mph 18.0 mph 93% 0.00 in
10:14 44.7 °F 42.8 °F 29.79 in SW 14.0 mph 22.0 mph 93% 0.00 in
10:19 44.6 °F 42.7 °F 29.79 in SW 12.0 mph 19.0 mph 93% 0.00 in
10:24 44.7 °F 42.8 °F 29.79 in WSW 8.0 mph 16.0 mph 93% 0.00 in
10:29 44.8 °F 42.9 °F 29.79 in West 9.0 mph 15.0 mph 93% 0.00 in
10:34 44.8 °F 42.9 °F 29.79 in West 5.0 mph 18.0 mph 93% 0.00 in
10:39 44.9 °F 43.0 °F 29.79 in WSW 9.0 mph 18.0 mph 93% 0.00 in
10:44 45.1 °F 43.2 °F 29.79 in WSW 9.0 mph 18.0 mph 93% 0.00 in
10:49 45.4 °F 43.5 °F 29.79 in WSW 8.0 mph 15.0 mph 93% 0.00 in
10:54 45.6 °F 43.7 °F 29.78 in WSW 8.0 mph 16.0 mph 93% 0.00 in
10:59 45.9 °F 44.0 °F 29.79 in WSW 8.0 mph 19.0 mph 93% 0.00 in
11:04 45.8 °F 43.9 °F 29.78 in WSW 7.0 mph 19.0 mph 93% 0.00 in
11:09 45.9 °F 44.0 °F 29.78 in WSW 7.0 mph 15.0 mph 93% 0.00 in
11:14 45.6 °F 43.7 °F 29.78 in SSW 9.0 mph 14.0 mph 93% 0.00 in
11:19 45.2 °F 43.3 °F 29.78 in WSW 9.0 mph 14.0 mph 93% 0.00 in
11:24 45.0 °F 43.1 °F 29.78 in SW 8.0 mph 15.0 mph 93% 0.00 in
11:29 44.9 °F 42.7 °F 29.78 in WSW 6.0 mph 15.0 mph 92% 0.00 in
11:34 45.1 °F 43.2 °F 29.78 in SW 6.0 mph 14.0 mph 93% 0.00 in
11:39 45.5 °F 43.3 °F 29.77 in SW 5.0 mph 12.0 mph 92% 0.00 in
11:44 46.0 °F 43.8 °F 29.78 in SW 7.0 mph 14.0 mph 92% 0.00 in
11:49 46.5 °F 44.3 °F 29.78 in WSW 7.0 mph 16.0 mph 92% 0.00 in
11:54 46.8 °F 44.6 °F 29.77 in WSW 8.0 mph 18.0 mph 92% 0.00 in
11:59 46.8 °F 44.6 °F 29.77 in WSW 8.0 mph 20.0 mph 92% 0.00 in
12:04 46.7 °F 44.2 °F 29.77 in WSW 8.0 mph 20.0 mph 91% 0.00 in
12:09 47.0 °F 44.5 °F 29.77 in WSW 8.0 mph 14.0 mph 91% 0.00 in
12:14 47.6 °F 45.1 °F 29.76 in WSW 4.0 mph 15.0 mph 91% 0.00 in
12:19 47.9 °F 45.1 °F 29.76 in SW 8.0 mph 16.0 mph 90% 0.00 in
12:24 48.1 °F 45.3 °F 29.77 in SW 9.0 mph 17.0 mph 90% 0.00 in
12:29 48.3 °F 45.2 °F 29.77 in WSW 9.0 mph 17.0 mph 89% 0.00 in
12:34 48.3 °F 45.2 °F 29.77 in WSW 9.0 mph 20.0 mph 89% 0.00 in
12:39 48.1 °F 45.0 °F 29.77 in SW 14.0 mph 17.0 mph 89% 0.00 in
12:44 48.1 °F 45.0 °F 29.77 in West 6.0 mph 14.0 mph 89% 0.00 in
12:49 47.5 °F 44.1 °F 29.77 in WSW 10.0 mph 19.0 mph 88% 0.00 in
12:54 46.4 °F 43.0 °F 29.77 in WSW 9.0 mph 19.0 mph 88% 0.00 in
12:59 46.1 °F 42.7 °F 29.77 in WSW 9.0 mph 14.0 mph 88% 0.00 in
13:04 46.0 °F 42.6 °F 29.76 in WSW 9.0 mph 17.0 mph 88% 0.00 in
13:09 45.8 °F 42.7 °F 29.76 in WSW 8.0 mph 17.0 mph 89% 0.00 in
13:14 45.7 °F 42.6 °F 29.75 in WSW 8.0 mph 17.0 mph 89% 0.00 in
13:19 45.6 °F 42.5 °F 29.74 in West 11.0 mph 12.0 mph 89% 0.00 in
13:24 45.8 °F 43.0 °F 29.74 in WSW 5.0 mph 15.0 mph 90% 0.00 in
13:29 45.7 °F 42.9 °F 29.74 in WSW 8.0 mph 15.0 mph 90% 0.00 in
13:34 45.5 °F 42.4 °F 29.74 in SW 7.0 mph 14.0 mph 89% 0.00 in
13:39 45.2 °F 42.4 °F 29.74 in West 5.0 mph 13.0 mph 90% 0.00 in
13:44 45.2 °F 42.4 °F 29.73 in SW 7.0 mph 17.0 mph 90% 0.00 in
13:49 45.2 °F 42.4 °F 29.73 in WSW 8.0 mph 15.0 mph 90% 0.00 in
13:54 45.3 °F 42.5 °F 29.72 in WSW 7.0 mph 13.0 mph 90% 0.00 in
13:59 45.4 °F 42.6 °F 29.73 in WSW 6.0 mph 15.0 mph 90% 0.00 in
14:04 45.4 °F 42.6 °F 29.72 in SW 8.0 mph 15.0 mph 90% 0.00 in
14:09 45.4 °F 42.6 °F 29.72 in WSW 8.0 mph 15.0 mph 90% 0.00 in
14:14 45.4 °F 42.6 °F 29.72 in SW 3.0 mph 16.0 mph 90% 0.00 in
14:19 44.9 °F 42.1 °F 29.72 in SSW 3.0 mph 10.0 mph 90% 0.00 in
14:24 44.4 °F 41.7 °F 29.71 in SSW 4.0 mph 8.0 mph 90% 0.00 in
14:29 44.0 °F 41.3 °F 29.70 in SW 4.0 mph 7.0 mph 90% 0.00 in
14:34 43.8 °F 41.3 °F 29.70 in SSW 5.0 mph 8.0 mph 91% 0.00 in
14:39 43.6 °F 41.1 °F 29.70 in SW 4.0 mph 9.0 mph 91% 0.00 in
14:44 43.5 °F 41.0 °F 29.70 in SW 5.0 mph 9.0 mph 91% 0.00 in
14:49 43.5 °F 41.0 °F 29.70 in SW 4.0 mph 9.0 mph 91% 0.00 in
14:54 43.7 °F 41.2 °F 29.70 in SW 5.0 mph 10.0 mph 91% 0.00 in
14:59 44.0 °F 41.5 °F 29.70 in WSW 5.0 mph 10.0 mph 91% 0.00 in
15:04 44.2 °F 41.7 °F 29.70 in WSW 4.0 mph 12.0 mph 91% 0.00 in
15:09 44.6 °F 42.4 °F 29.70 in West 5.0 mph 12.0 mph 92% 0.00 in
15:14 45.2 °F 43.0 °F 29.70 in WSW 7.0 mph 13.0 mph 92% 0.00 in
15:19 45.6 °F 43.4 °F 29.70 in WSW 5.0 mph 13.0 mph 92% 0.00 in
15:24 45.9 °F 43.7 °F 29.70 in SW 5.0 mph 15.0 mph 92% 0.00 in
15:29 46.0 °F 43.8 °F 29.70 in SW 11.0 mph 12.0 mph 92% 0.00 in
15:34 46.4 °F 44.2 °F 29.70 in WSW 7.0 mph 15.0 mph 92% 0.00 in
15:39 46.7 °F 44.5 °F 29.70 in WSW 3.0 mph 11.0 mph 92% 0.00 in
15:44 46.9 °F 44.7 °F 29.70 in SW 7.0 mph 15.0 mph 92% 0.00 in
15:54 46.4 °F 44.2 °F 29.70 in SW 7.0 mph 15.0 mph 92% 0.00 in
15:59 45.9 °F 43.7 °F 29.70 in SW 6.0 mph 12.0 mph 92% 0.00 in
16:04 45.4 °F 43.2 °F 29.70 in SW 4.0 mph 9.0 mph 92% 0.00 in
16:09 45.2 °F 43.0 °F 29.70 in SW 6.0 mph 10.0 mph 92% 0.01 in
16:14 45.2 °F 43.0 °F 29.70 in West 3.0 mph 8.0 mph 92% 0.02 in
16:19 45.0 °F 42.8 °F 29.70 in SW 5.0 mph 8.0 mph 92% 0.03 in
16:24 44.8 °F 42.6 °F 29.70 in West 5.0 mph 9.0 mph 92% 0.04 in
16:34 44.9 °F 42.7 °F 29.69 in SSW 8.0 mph 11.0 mph 92% 0.05 in
16:39 45.0 °F 42.8 °F 29.69 in WSW 5.0 mph 10.0 mph 92% 0.05 in
16:44 45.1 °F 42.9 °F 29.69 in WSW 4.0 mph 7.0 mph 92% 0.05 in
16:49 45.7 °F 43.8 °F 29.69 in West 6.0 mph 9.0 mph 93% 0.05 in
16:54 46.3 °F 44.4 °F 29.69 in West 7.0 mph 15.0 mph 93% 0.05 in
16:59 46.5 °F 44.6 °F 29.69 in WSW 7.0 mph 15.0 mph 93% 0.06 in
17:04 46.5 °F 44.6 °F 29.69 in WSW 6.0 mph 15.0 mph 93% 0.06 in
17:09 46.5 °F 44.6 °F 29.69 in WSW 5.0 mph 11.0 mph 93% 0.06 in
17:14 46.6 °F 44.7 °F 29.69 in WSW 4.0 mph 10.0 mph 93% 0.06 in
17:19 46.6 °F 44.7 °F 29.69 in WSW 4.0 mph 10.0 mph 93% 0.05 in
17:24 46.5 °F 44.6 °F 29.69 in WSW 4.0 mph 9.0 mph 93% 0.04 in
17:29 45.9 °F 43.7 °F 29.68 in SSW 4.0 mph 7.0 mph 92% 0.04 in
17:34 45.2 °F 43.0 °F 29.68 in South 1.0 mph 6.0 mph 92% 0.04 in
17:39 44.7 °F 42.5 °F 29.68 in SW 2.0 mph 7.0 mph 92% 0.04 in
17:44 44.6 °F 42.7 °F 29.68 in SW 3.0 mph 6.0 mph 93% 0.04 in
17:49 44.7 °F 42.8 °F 29.68 in SSW 3.0 mph 7.0 mph 93% 0.04 in
17:54 44.9 °F 43.0 °F 29.67 in WSW 5.0 mph 8.0 mph 93% 0.04 in
17:59 45.1 °F 43.2 °F 29.67 in South 1.0 mph 10.0 mph 93% 0.03 in
18:04 45.0 °F 43.1 °F 29.67 in South 6.0 mph 11.0 mph 93% 0.03 in
18:09 44.4 °F 42.2 °F 29.67 in SSW 5.0 mph 11.0 mph 92% 0.02 in
18:14 44.1 °F 42.2 °F 29.68 in SW 5.0 mph 10.0 mph 93% 0.01 in
18:19 44.1 °F 42.2 °F 29.68 in WSW 4.0 mph 10.0 mph 93% 0.01 in
18:24 44.0 °F 42.1 °F 29.67 in SW 5.0 mph 6.0 mph 93% 0.01 in
18:29 44.0 °F 42.1 °F 29.67 in WSW 6.0 mph 7.0 mph 93% 0.00 in
18:34 44.1 °F 42.2 °F 29.67 in SSW 6.0 mph 8.0 mph 93% 0.00 in
18:39 44.3 °F 42.4 °F 29.67 in SSW 2.0 mph 8.0 mph 93% 0.00 in
18:44 44.5 °F 42.6 °F 29.67 in SW 4.0 mph 8.0 mph 93% 0.00 in
18:49 44.9 °F 43.0 °F 29.67 in WSW 3.0 mph 7.0 mph 93% 0.00 in
18:54 45.2 °F 43.3 °F 29.66 in WSW 3.0 mph 6.0 mph 93% 0.00 in
18:59 45.4 °F 43.5 °F 29.66 in SW 2.0 mph 6.0 mph 93% 0.00 in
19:04 45.9 °F 44.3 °F 29.66 in West 3.0 mph 10.0 mph 94% 0.00 in
19:09 46.1 °F 44.2 °F 29.66 in SW 4.0 mph 7.0 mph 93% 0.00 in
19:14 46.2 °F 44.3 °F 29.66 in SW 6.0 mph 8.0 mph 93% 0.00 in
19:19 46.2 °F 44.6 °F 29.66 in SW 4.0 mph 8.0 mph 94% 0.00 in
19:24 46.1 °F 44.2 °F 29.66 in SW 7.0 mph 8.0 mph 93% 0.00 in
19:29 46.0 °F 44.1 °F 29.65 in SW 4.0 mph 9.0 mph 93% 0.00 in
19:34 45.9 °F 44.0 °F 29.65 in WSW 5.0 mph 7.0 mph 93% 0.00 in
19:39 45.6 °F 43.7 °F 29.65 in WSW 5.0 mph 7.0 mph 93% 0.00 in
19:44 45.4 °F 43.5 °F 29.65 in West 1.0 mph 6.0 mph 93% 0.00 in
19:49 45.1 °F 43.2 °F 29.65 in WSW 2.0 mph 6.0 mph 93% 0.00 in
19:54 44.7 °F 42.8 °F 29.65 in West 2.0 mph 4.0 mph 93% 0.00 in
19:59 44.3 °F 42.4 °F 29.65 in West 2.0 mph 4.0 mph 93% 0.00 in
20:04 44.1 °F 42.2 °F 29.65 in WSW 2.0 mph 6.0 mph 93% 0.00 in
20:09 43.9 °F 42.0 °F 29.65 in WSW 2.0 mph 6.0 mph 93% 0.00 in
20:14 43.8 °F 41.9 °F 29.65 in WSW 2.0 mph 5.0 mph 93% 0.00 in
20:19 43.4 °F 41.5 °F 29.64 in WSW 1.0 mph 5.0 mph 93% 0.00 in
20:24 43.2 °F 41.3 °F 29.65 in WSW 1.0 mph 5.0 mph 93% 0.00 in
20:29 42.9 °F 41.0 °F 29.65 in Calm   4.0 mph 93% 0.00 in
20:34 42.6 °F 40.7 °F 29.64 in SW 2.0 mph 4.0 mph 93% 0.00 in
20:39 42.5 °F 40.6 °F 29.65 in SW 2.0 mph 4.0 mph 93% 0.00 in
20:44 42.4 °F 40.5 °F 29.65 in SSW 2.0 mph 5.0 mph 93% 0.00 in
20:49 42.4 °F 40.8 °F 29.65 in SW 2.0 mph 6.0 mph 94% 0.00 in
20:54 42.4 °F 40.8 °F 29.65 in SW 2.0 mph 4.0 mph 94% 0.00 in
20:59 42.4 °F 40.5 °F 29.65 in SW 2.0 mph 5.0 mph 93% 0.00 in
21:04 42.5 °F 40.9 °F 29.65 in SW 2.0 mph 5.0 mph 94% 0.00 in
21:09 42.5 °F 40.9 °F 29.65 in SW 2.0 mph 5.0 mph 94% 0.00 in
21:14 42.5 °F 40.9 °F 29.65 in SSW 2.0 mph 6.0 mph 94% 0.01 in
21:19 42.7 °F 41.1 °F 29.65 in SSW 2.0 mph 6.0 mph 94% 0.02 in
21:24 42.7 °F 41.1 °F 29.65 in SW 2.0 mph 6.0 mph 94% 0.02 in
21:29 42.9 °F 41.3 °F 29.65 in SSW 2.0 mph 5.0 mph 94% 0.03 in
21:34 43.0 °F 41.4 °F 29.67 in WSW 2.0 mph 5.0 mph 94% 0.03 in
21:39 43.1 °F 41.5 °F 29.66 in WNW 2.0 mph 5.0 mph 94% 0.04 in
21:44 43.3 °F 41.7 °F 29.66 in West 1.0 mph 5.0 mph 94% 0.04 in
21:49 43.5 °F 41.9 °F 29.66 in Calm   4.0 mph 94% 0.05 in
21:54 43.8 °F 42.2 °F 29.65 in WNW 2.0 mph 2.0 mph 94% 0.05 in
21:59 43.9 °F 42.3 °F 29.65 in Calm   2.0 mph 94% 0.05 in
22:04 43.8 °F 42.2 °F 29.65 in WNW 1.0 mph 3.0 mph 94% 0.06 in
22:09 43.8 °F 42.2 °F 29.65 in Calm   3.0 mph 94% 0.06 in
22:14 43.7 °F 42.1 °F 29.66 in WNW 1.0 mph 4.0 mph 94% 0.06 in
22:19 43.6 °F 42.0 °F 29.65 in Calm   4.0 mph 94% 0.06 in
22:24 43.5 °F 41.9 °F 29.66 in Calm   3.0 mph 94% 0.06 in
22:29 43.5 °F 41.9 °F 29.66 in WNW 2.0 mph 3.0 mph 94% 0.06 in
22:34 43.5 °F 41.9 °F 29.66 in WNW 1.0 mph 3.0 mph 94% 0.07 in
22:39 43.6 °F 42.0 °F 29.66 in WNW 1.0 mph 3.0 mph 94% 0.08 in
22:44 43.5 °F 41.9 °F 29.66 in WNW 1.0 mph 3.0 mph 94% 0.09 in
22:49 43.4 °F 41.8 °F 29.66 in Calm   2.0 mph 94% 0.09 in
22:54 43.4 °F 41.8 °F 29.67 in Calm   2.0 mph 94% 0.09 in
22:59 43.4 °F 41.8 °F 29.67 in WNW 1.0 mph 3.0 mph 94% 0.09 in
23:04 43.3 °F 41.7 °F 29.67 in Calm   3.0 mph 94% 0.09 in
23:09 43.3 °F 41.7 °F 29.67 in Calm     94% 0.09 in
23:14 43.2 °F 41.6 °F 29.67 in WNW 2.0 mph 2.0 mph 94% 0.10 in
23:19 43.2 °F 41.6 °F 29.67 in Calm   2.0 mph 94% 0.10 in
23:24 43.1 °F 41.5 °F 29.66 in Calm     94% 0.10 in
23:29 42.8 °F 41.2 °F 29.66 in Calm   1.0 mph 94% 0.10 in
23:34 42.7 °F 41.1 °F 29.66 in Calm     94% 0.09 in
23:39 42.4 °F 40.8 °F 29.66 in Calm     94% 0.07 in
23:44 42.2 °F 40.6 °F 29.66 in Calm     94% 0.06 in
23:49 42.1 °F 40.5 °F 29.67 in Calm     94% 0.05 in
23:54 41.9 °F 40.3 °F 29.66 in Calm     94% 0.05 in
23:59 41.8 °F 40.2 °F 29.66 in Calm     94% 0.05 in
Buffalo, New York, USA
Compliments of Weather Underground - 2.5 mb